Time;durP1;ratioP1;P1;durP2;ratioP2;P2;SDS_P1;SDS_P2;PMS_P1;PMS_P2;Temp;Humidity;BMP_temperature;BMP_pressure;BME280_temperature;BME280_humidity;BME280_pressure;Samples;Min_cycle;Max_cycle;Signal;HPM_P1;HPM_P2
2022/01/29 00:02:17;;;;;;;19.83;14.98;;;3.80;99.90;;;;;;5097911;28;20032;-78
2022/01/29 00:04:44;;;;;;;22.45;14.63;;;3.80;99.90;;;;;;5098922;28;20449;-79
2022/01/29 00:07:10;;;;;;;30.30;24.65;;;3.90;99.90;;;;;;5099248;28;20032;-78
2022/01/29 00:09:36;;;;;;;20.75;18.52;;;4.00;99.90;;;;;;5099158;28;20043;-77
2022/01/29 00:12:03;;;;;;;15.50;13.98;;;4.10;99.90;;;;;;5099151;28;20028;-78
2022/01/29 00:14:29;;;;;;;19.77;13.15;;;4.10;99.90;;;;;;5097132;28;20034;-79
2022/01/29 00:16:55;;;;;;;24.88;15.05;;;4.10;99.90;;;;;;5096415;28;20035;-79
2022/01/29 00:19:22;;;;;;;20.83;16.40;;;4.20;99.90;;;;;;5096544;28;20330;-78
2022/01/29 00:21:48;;;;;;;22.63;18.30;;;4.20;99.90;;;;;;5096593;28;20063;-77
2022/01/29 00:24:14;;;;;;;28.38;21.13;;;4.20;99.90;;;;;;5098573;28;20032;-78
2022/01/29 00:26:40;;;;;;;17.02;14.65;;;4.20;99.90;;;;;;5099373;28;20035;-78
2022/01/29 00:29:16;;;;;;;17.92;15.57;;;4.10;99.90;;;;;;5065946;28;20040;-77
2022/01/29 00:31:42;;;;;;;14.18;12.25;;;4.20;99.90;;;;;;5082315;28;20044;-80
2022/01/29 00:34:09;;;;;;;16.00;11.88;;;4.20;99.90;;;;;;5100302;28;20035;-78
2022/01/29 00:36:35;;;;;;;16.35;12.55;;;4.20;99.90;;;;;;5082624;28;20484;-78
2022/01/29 00:39:01;;;;;;;14.63;13.10;;;4.20;99.90;;;;;;5100261;28;20039;-78
2022/01/29 00:41:27;;;;;;;14.30;12.38;;;4.20;99.90;;;;;;5079717;28;20481;-78
2022/01/29 00:43:54;;;;;;;18.50;12.45;;;4.20;99.90;;;;;;5078190;28;20043;-78
2022/01/29 00:46:20;;;;;;;14.63;13.07;;;4.30;99.90;;;;;;5101050;28;20031;-78
2022/01/29 00:48:46;;;;;;;16.45;13.50;;;4.20;99.90;;;;;;5096938;28;20036;-78
2022/01/29 00:51:12;;;;;;;15.15;11.70;;;4.20;99.90;;;;;;5098944;28;20043;-77
2022/01/29 00:53:39;;;;;;;15.43;13.13;;;4.30;99.90;;;;;;5096297;28;20024;-78
2022/01/29 00:56:07;;;;;;;20.15;16.85;;;4.30;99.90;;;;;;5098133;28;20039;-77
2022/01/29 00:58:33;;;;;;;22.02;16.35;;;4.30;99.90;;;;;;5094542;28;20031;-78
2022/01/29 01:01:00;;;;;;;17.83;16.00;;;4.30;99.90;;;;;;5075308;28;20492;-78
2022/01/29 01:03:26;;;;;;;16.73;15.02;;;4.30;99.90;;;;;;5095818;28;20039;-78
2022/01/29 01:05:53;;;;;;;23.48;17.42;;;4.30;99.90;;;;;;5093214;28;20028;-79
2022/01/29 01:08:19;;;;;;;20.83;15.77;;;4.30;99.90;;;;;;5075826;28;20036;-78
2022/01/29 01:10:45;;;;;;;15.90;14.13;;;4.30;99.90;;;;;;5093489;28;20032;-79
2022/01/29 01:13:11;;;;;;;17.75;14.15;;;4.30;99.90;;;;;;5093708;28;20496;-78
2022/01/29 01:15:38;;;;;;;22.83;16.05;;;4.40;99.90;;;;;;5094139;28;20036;-78
2022/01/29 01:18:04;;;;;;;17.80;15.00;;;4.40;99.90;;;;;;5091619;28;20062;-79
2022/01/29 01:20:30;;;;;;;22.15;14.30;;;4.40;99.90;;;;;;5093908;28;20044;-78
2022/01/29 01:22:56;;;;;;;16.48;13.75;;;4.40;99.90;;;;;;5093155;28;20028;-79
2022/01/29 01:25:22;;;;;;;21.17;15.00;;;4.40;99.90;;;;;;5075643;28;20508;-79
2022/01/29 01:27:48;;;;;;;20.08;16.15;;;4.30;99.90;;;;;;5093217;28;20031;-80
2022/01/29 01:30:15;;;;;;;16.30;14.60;;;4.30;99.90;;;;;;5094180;28;20063;-80
2022/01/29 01:32:41;;;;;;;16.52;13.35;;;4.30;99.90;;;;;;5093471;28;20036;-80
2022/01/29 01:35:18;;;;;;;16.65;14.88;;;4.30;99.90;;;;;;5093786;28;20043;-79
2022/01/29 01:40:30;;;;;;;16.58;14.73;;;4.30;99.90;;;;;;5041826;28;20048;-80
2022/01/29 01:43:00;;;;;;;13.75;11.82;;;4.30;99.90;;;;;;5093202;28;20032;-80
2022/01/29 01:45:30;;;;;;;13.45;11.73;;;4.30;99.90;;;;;;5076146;28;20043;-79
2022/01/29 01:47:57;;;;;;;25.40;16.25;;;4.20;99.90;;;;;;5093176;28;20028;-80
2022/01/29 01:50:24;;;;;;;32.20;21.35;;;4.20;99.90;;;;;;5093128;28;20043;-80
2022/01/29 01:52:51;;;;;;;16.17;12.23;;;4.30;99.90;;;;;;5092373;28;20389;-80
2022/01/29 01:55:18;;;;;;;14.23;12.73;;;4.20;99.90;;;;;;5095495;28;20035;-79
2022/01/29 01:57:44;;;;;;;13.73;11.30;;;4.20;99.90;;;;;;5074209;28;20051;-79
2022/01/29 02:00:11;;;;;;;14.15;11.57;;;4.20;99.90;;;;;;5092240;28;20035;-80
2022/01/29 02:02:40;;;;;;;15.98;10.15;;;4.20;99.90;;;;;;5075201;28;20043;-79
2022/01/29 02:05:08;;;;;;;12.40;9.55;;;4.20;99.90;;;;;;5092151;28;20036;-79
2022/01/29 02:07:35;;;;;;;9.63;8.65;;;4.20;99.90;;;;;;5074149;28;20040;-79
2022/01/29 02:10:07;;;;;;;12.07;9.05;;;4.20;99.90;;;;;;5091895;28;20032;-79
2022/01/29 02:12:51;;;;;;;12.70;9.45;;;4.10;99.90;;;;;;5074643;28;20032;-78
2022/01/29 02:15:19;;;;;;;10.52;9.32;;;4.10;99.90;;;;;;5092497;28;20032;-78
2022/01/29 02:17:46;;;;;;;11.32;8.63;;;4.00;99.90;;;;;;5092715;28;20020;-78
2022/01/29 02:20:14;;;;;;;10.90;9.40;;;4.00;99.90;;;;;;5092058;28;20047;-79
2022/01/29 02:22:45;;;;;;;11.43;9.93;;;4.00;99.90;;;;;;5092329;28;20032;-79
2022/01/29 02:25:49;;;;;;;13.00;10.07;;;3.90;99.90;;;;;;5091787;28;20389;-79
2022/01/29 02:28:19;;;;;;;9.75;8.80;;;3.90;99.90;;;;;;5092369;28;20035;-79
2022/01/29 02:30:50;;;;;;;11.75;10.13;;;3.90;99.90;;;;;;5091825;28;20058;-79
2022/01/29 02:33:17;;;;;;;10.40;8.93;;;3.90;99.90;;;;;;5092215;28;20028;-79
2022/01/29 02:35:49;;;;;;;12.27;8.80;;;3.80;99.90;;;;;;5074245;28;20028;-78
2022/01/29 02:38:19;;;;;;;10.45;8.70;;;3.90;99.90;;;;;;5092410;28;20024;-79
2022/01/29 02:40:49;;;;;;;12.05;10.10;;;3.80;99.90;;;;;;5091972;28;20047;-78
2022/01/29 02:43:22;;;;;;;11.68;10.02;;;3.80;99.90;;;;;;5092461;28;20376;-78
2022/01/29 02:45:50;;;;;;;17.02;9.93;;;3.80;99.90;;;;;;5092201;28;20032;-79
2022/01/29 02:48:17;;;;;;;13.50;10.40;;;3.80;99.90;;;;;;5092637;28;20465;-79
2022/01/29 02:50:43;;;;;;;9.80;8.88;;;3.80;99.90;;;;;;5091981;28;20044;-78
2022/01/29 02:53:09;;;;;;;16.42;11.10;;;3.80;99.90;;;;;;5091896;28;20043;-78
2022/01/29 02:55:35;;;;;;;13.63;9.50;;;3.80;99.90;;;;;;5091685;28;20036;-79
2022/01/29 02:58:02;;;;;;;20.25;10.00;;;3.80;99.90;;;;;;5092101;28;20048;-79
2022/01/29 03:00:29;;;;;;;16.20;10.50;;;3.80;99.90;;;;;;5073698;28;20067;-78
2022/01/29 03:02:55;;;;;;;12.98;10.65;;;3.80;99.90;;;;;;5091461;28;20381;-79
2022/01/29 03:05:21;;;;;;;12.35;9.95;;;3.80;99.90;;;;;;5092165;28;20028;-78
2022/01/29 03:07:47;;;;;;;15.13;9.75;;;3.80;99.90;;;;;;5091811;28;20043;-78
2022/01/29 03:10:14;;;;;;;11.98;10.15;;;3.80;99.90;;;;;;5073340;28;20031;-78
2022/01/29 03:12:41;;;;;;;15.15;10.98;;;3.80;99.90;;;;;;5091538;28;20036;-78
2022/01/29 03:15:09;;;;;;;18.23;10.35;;;3.80;99.90;;;;;;5090945;28;20043;-78
2022/01/29 03:17:35;;;;;;;12.35;10.63;;;3.80;99.90;;;;;;5091705;28;20039;-78
2022/01/29 03:20:03;;;;;;;11.55;9.77;;;3.80;99.90;;;;;;5091250;28;20033;-79
2022/01/29 03:22:30;;;;;;;18.45;10.82;;;3.80;99.90;;;;;;5091646;28;20052;-79
2022/01/29 03:24:56;;;;;;;15.48;10.48;;;3.80;99.90;;;;;;5072573;28;20389;-79
2022/01/29 03:27:23;;;;;;;11.55;10.27;;;3.80;99.90;;;;;;5091494;28;20031;-79
2022/01/29 03:29:49;;;;;;;18.65;11.48;;;3.80;99.90;;;;;;5073687;28;20046;-79
2022/01/29 03:32:15;;;;;;;12.43;11.05;;;3.90;99.90;;;;;;5090756;28;20484;-79
2022/01/29 03:34:41;;;;;;;16.42;11.35;;;3.80;99.90;;;;;;5091492;28;20036;-79
2022/01/29 03:37:07;;;;;;;12.52;10.25;;;3.80;99.90;;;;;;5091103;28;20024;-79
2022/01/29 03:39:35;;;;;;;11.68;9.82;;;3.80;99.90;;;;;;5073872;28;20045;-78
2022/01/29 03:42:06;;;;;;;12.77;11.05;;;3.80;99.90;;;;;;5075202;28;20040;-79
2022/01/29 03:44:32;;;;;;;12.85;10.95;;;3.80;99.90;;;;;;5077010;28;20031;-78
2022/01/29 03:46:58;;;;;;;12.63;10.93;;;3.80;99.90;;;;;;5094502;28;20028;-79
2022/01/29 03:49:25;;;;;;;12.02;9.27;;;3.80;99.90;;;;;;5094735;28;20409;-79
2022/01/29 03:51:51;;;;;;;13.70;10.63;;;3.80;99.90;;;;;;5076746;28;20036;-78
2022/01/29 03:54:17;;;;;;;14.02;9.88;;;3.80;99.90;;;;;;5076413;28;20039;-79
2022/01/29 03:56:43;;;;;;;17.00;11.23;;;3.80;99.90;;;;;;5094850;28;20055;-78
2022/01/29 03:59:09;;;;;;;12.52;10.30;;;3.80;99.90;;;;;;5060848;28;20373;-79
2022/01/29 04:01:36;;;;;;;15.20;10.98;;;3.80;99.90;;;;;;5076522;28;20036;-79
2022/01/29 04:04:02;;;;;;;15.55;11.35;;;3.80;99.90;;;;;;5093996;28;20020;-79
2022/01/29 04:06:30;;;;;;;11.77;10.60;;;3.80;99.90;;;;;;5094715;28;20491;-79
2022/01/29 04:08:57;;;;;;;19.08;11.95;;;3.70;99.90;;;;;;5094465;28;20401;-79
2022/01/29 04:11:25;;;;;;;12.27;10.65;;;3.70;99.90;;;;;;5094932;28;20035;-78
2022/01/29 04:13:51;;;;;;;17.67;10.63;;;3.70;99.90;;;;;;5094620;28;20393;-78
2022/01/29 04:16:18;;;;;;;12.70;11.02;;;3.70;99.90;;;;;;5094623;28;20036;-79
2022/01/29 04:18:44;;;;;;;16.92;11.23;;;3.70;99.90;;;;;;5094461;28;20028;-78
2022/01/29 04:21:10;;;;;;;19.40;11.07;;;3.70;99.90;;;;;;5093828;28;20040;-78
2022/01/29 04:23:37;;;;;;;12.18;10.18;;;3.70;99.90;;;;;;5095141;28;20031;-78
2022/01/29 04:26:04;;;;;;;10.63;9.52;;;3.70;99.90;;;;;;5093716;28;20052;-79
2022/01/29 04:28:36;;;;;;;12.85;10.68;;;3.60;99.90;;;;;;5095156;28;20035;-79
2022/01/29 04:31:15;;;;;;;16.52;11.55;;;3.70;99.90;;;;;;5098583;28;20039;-77
2022/01/29 04:33:41;;;;;;;12.50;11.27;;;3.70;99.90;;;;;;5078219;28;20028;-78
2022/01/29 04:36:09;;;;;;;17.25;13.05;;;3.70;99.90;;;;;;5076312;28;20392;-77
2022/01/29 04:38:35;;;;;;;63.80;55.92;;;3.70;99.90;;;;;;5094393;28;20028;-78
2022/01/29 04:41:06;;;;;;;32.08;28.88;;;3.60;99.90;;;;;;5075265;28;20043;-78
2022/01/29 04:43:34;;;;;;;53.08;47.72;;;3.70;99.90;;;;;;5094530;28;20035;-77
2022/01/29 04:46:01;;;;;;;53.80;48.25;;;3.70;99.90;;;;;;5093486;28;20385;-78
2022/01/29 04:48:28;;;;;;;67.82;61.58;;;3.70;99.90;;;;;;5094819;28;20051;-77
2022/01/29 04:50:54;;;;;;;44.22;39.90;;;3.70;99.90;;;;;;5094326;28;20043;-78
2022/01/29 04:53:21;;;;;;;25.80;21.88;;;3.70;99.90;;;;;;5093536;28;20036;-78
2022/01/29 04:55:47;;;;;;;16.77;14.73;;;3.70;99.90;;;;;;5094232;28;20032;-78
2022/01/29 04:58:13;;;;;;;24.27;17.02;;;3.60;99.90;;;;;;5093526;28;20499;-78
2022/01/29 05:00:40;;;;;;;15.07;13.57;;;3.60;99.90;;;;;;5093747;28;20028;-78
2022/01/29 05:03:11;;;;;;;16.17;13.20;;;3.60;99.90;;;;;;5094518;28;20047;-78
2022/01/29 05:05:39;;;;;;;19.20;15.77;;;3.60;99.90;;;;;;5093542;28;20031;-78
2022/01/29 05:08:06;;;;;;;17.05;13.65;;;3.70;99.90;;;;;;5092897;28;20067;-79
2022/01/29 05:10:34;;;;;;;23.30;13.50;;;3.70;99.90;;;;;;5093546;28;20043;-79
2022/01/29 05:13:05;;;;;;;20.13;12.85;;;3.70;99.90;;;;;;5074856;28;20040;-80
2022/01/29 05:28:57;;;;;;;18.00;14.25;;;3.70;99.90;;;;;;5074699;28;20040;-77
2022/01/29 05:31:24;;;;;;;17.02;13.82;;;3.70;99.90;;;;;;5074458;28;20055;-76
2022/01/29 05:33:50;;;;;;;17.45;13.63;;;3.70;99.90;;;;;;5093165;28;20028;-77
2022/01/29 05:36:16;;;;;;;15.70;12.75;;;3.60;99.90;;;;;;5092152;28;20035;-76
2022/01/29 05:38:43;;;;;;;17.95;13.02;;;3.60;99.90;;;;;;5092860;28;20032;-77
2022/01/29 05:41:10;;;;;;;18.48;14.52;;;3.70;99.90;;;;;;5092162;28;20385;-77
2022/01/29 05:43:36;;;;;;;13.15;11.85;;;3.60;99.90;;;;;;5092544;28;20032;-77
2022/01/29 05:46:02;;;;;;;15.98;14.10;;;3.60;99.90;;;;;;5073697;28;20355;-77
2022/01/29 05:48:29;;;;;;;15.88;13.27;;;3.70;99.90;;;;;;5074962;28;20039;-77
2022/01/29 05:50:55;;;;;;;14.50;12.80;;;3.70;99.90;;;;;;5092721;28;20043;-78
2022/01/29 05:53:22;;;;;;;14.88;12.50;;;3.70;99.90;;;;;;5092413;28;20040;-78
2022/01/29 05:55:48;;;;;;;22.70;14.20;;;3.70;99.90;;;;;;5074339;28;20389;-78
2022/01/29 05:58:14;;;;;;;20.38;12.65;;;3.70;99.90;;;;;;5091686;28;20052;-78
2022/01/29 06:00:40;;;;;;;16.45;13.57;;;3.70;99.90;;;;;;5074661;28;20035;-78
2022/01/29 06:03:09;;;;;;;15.88;13.80;;;3.60;99.90;;;;;;5091953;28;20035;-78
2022/01/29 06:05:36;;;;;;;15.68;11.80;;;3.60;99.90;;;;;;5092088;28;20385;-78
2022/01/29 06:08:06;;;;;;;17.10;11.82;;;3.60;99.90;;;;;;5092606;28;20031;-79
2022/01/29 06:10:33;;;;;;;17.45;13.35;;;3.60;99.90;;;;;;5092681;28;20024;-78
2022/01/29 06:13:03;;;;;;;16.67;12.02;;;3.60;99.90;;;;;;5092455;28;20036;-78
2022/01/29 06:15:39;;;;;;;13.07;11.13;;;3.60;99.90;;;;;;5093947;28;20032;-78
2022/01/29 06:18:06;;;;;;;14.30;11.23;;;3.60;99.90;;;;;;5074453;28;20055;-79
2022/01/29 06:20:32;;;;;;;17.75;11.57;;;3.60;99.90;;;;;;5092498;28;20032;-78
2022/01/29 06:22:59;;;;;;;16.58;12.77;;;3.60;99.90;;;;;;5092147;28;20389;-78
2022/01/29 06:25:25;;;;;;;10.98;9.85;;;3.60;99.90;;;;;;5091652;28;20385;-78
2022/01/29 06:27:51;;;;;;;17.95;12.30;;;3.50;99.90;;;;;;5092383;28;20032;-76
2022/01/29 06:30:17;;;;;;;15.60;10.68;;;3.50;99.90;;;;;;5089928;28;20036;-77
2022/01/29 06:32:44;;;;;;;13.20;11.25;;;3.50;99.90;;;;;;5074284;28;20381;-77
2022/01/29 06:35:11;;;;;;;13.65;11.00;;;3.50;99.90;;;;;;5091414;28;20036;-78
2022/01/29 06:37:37;;;;;;;12.57;10.57;;;3.50;99.90;;;;;;5092391;28;20032;-77
2022/01/29 06:40:04;;;;;;;17.42;10.88;;;3.50;99.90;;;;;;5074050;28;20052;-77
2022/01/29 06:42:30;;;;;;;17.48;12.23;;;3.50;99.90;;;;;;5074302;28;20520;-77
2022/01/29 06:44:57;;;;;;;21.58;14.77;;;3.50;99.90;;;;;;5092007;28;20032;-77
2022/01/29 06:47:23;;;;;;;21.63;18.55;;;3.50;99.90;;;;;;5091776;28;20036;-77
2022/01/29 06:49:49;;;;;;;20.88;18.35;;;3.50;99.90;;;;;;5092318;28;20047;-77
2022/01/29 06:52:16;;;;;;;17.38;14.63;;;3.50;99.90;;;;;;5073038;28;20048;-77
2022/01/29 06:54:42;;;;;;;13.95;11.68;;;3.50;99.90;;;;;;5073909;28;20043;-77
2022/01/29 06:57:09;;;;;;;14.00;12.18;;;3.40;99.90;;;;;;5091588;28;20071;-78
2022/01/29 06:59:36;;;;;;;27.67;15.18;;;3.50;99.90;;;;;;5092097;28;20032;-79
2022/01/29 07:02:02;;;;;;;24.58;17.88;;;3.50;99.90;;;;;;5074553;28;20036;-79
2022/01/29 07:04:28;;;;;;;14.20;10.82;;;3.50;99.90;;;;;;5092119;28;20032;-79
2022/01/29 07:06:54;;;;;;;14.27;12.77;;;3.50;99.90;;;;;;5096318;28;20389;-79
2022/01/29 07:09:21;;;;;;;15.40;11.13;;;3.50;99.90;;;;;;5072919;28;20028;-78
2022/01/29 07:11:53;;;;;;;13.32;12.02;;;3.50;99.90;;;;;;5092147;28;20458;-78
2022/01/29 07:14:20;;;;;;;10.95;9.70;;;3.50;99.90;;;;;;5092039;28;20044;-79
2022/01/29 07:16:47;;;;;;;9.77;8.70;;;3.50;99.90;;;;;;5093853;28;20477;-78
2022/01/29 07:19:13;;;;;;;10.65;9.23;;;3.50;99.90;;;;;;5097031;28;20458;-79
2022/01/29 07:21:39;;;;;;;9.25;8.27;;;3.50;99.90;;;;;;5096126;28;20051;-78
2022/01/29 07:24:06;;;;;;;9.75;8.05;;;3.50;99.90;;;;;;5095656;28;20370;-78
2022/01/29 07:26:32;;;;;;;11.18;9.30;;;3.50;99.90;;;;;;5095568;28;20028;-78
2022/01/29 07:28:58;;;;;;;21.08;9.85;;;3.40;99.90;;;;;;5095677;28;20050;-78
2022/01/29 07:31:24;;;;;;;14.88;10.40;;;3.50;99.90;;;;;;5095334;28;20055;-78
2022/01/29 07:33:51;;;;;;;11.65;9.57;;;3.50;99.90;;;;;;5077379;28;20054;-78
2022/01/29 07:36:17;;;;;;;13.77;8.93;;;3.50;99.90;;;;;;5094924;28;20028;-78
2022/01/29 07:38:44;;;;;;;13.82;8.63;;;3.60;99.90;;;;;;5095384;28;20028;-77
2022/01/29 07:41:10;;;;;;;12.88;9.38;;;3.50;99.90;;;;;;5094840;28;20020;-78
2022/01/29 07:43:36;;;;;;;10.50;9.18;;;3.60;99.90;;;;;;5074868;28;20039;-78
2022/01/29 07:46:02;;;;;;;10.82;8.90;;;3.60;99.90;;;;;;5094834;28;20032;-78
2022/01/29 07:48:28;;;;;;;10.00;8.98;;;3.60;99.90;;;;;;5094849;28;20403;-77
2022/01/29 07:50:55;;;;;;;8.95;8.15;;;3.60;99.90;;;;;;5095321;28;20039;-79
2022/01/29 07:53:21;;;;;;;9.80;8.63;;;3.60;99.90;;;;;;5076697;28;20024;-78
2022/01/29 07:55:47;;;;;;;12.98;9.10;;;3.60;99.90;;;;;;5095774;28;20028;-79
2022/01/29 07:58:13;;;;;;;10.25;8.35;;;3.50;99.90;;;;;;5098720;28;20051;-79
2022/01/29 08:00:39;;;;;;;18.48;9.90;;;3.50;99.90;;;;;;5095699;28;20036;-77
2022/01/29 08:03:05;;;;;;;18.10;9.13;;;3.50;99.90;;;;;;5095018;28;20039;-78
2022/01/29 08:05:34;;;;;;;13.30;9.63;;;3.50;99.90;;;;;;5094826;28;20046;-78
2022/01/29 08:08:00;;;;;;;11.00;9.45;;;3.50;99.90;;;;;;5095139;28;20047;-78
2022/01/29 08:10:26;;;;;;;15.75;9.27;;;3.50;99.90;;;;;;5094756;28;20047;-77
2022/01/29 08:12:53;;;;;;;12.48;10.25;;;3.60;99.90;;;;;;5094854;28;20040;-77
2022/01/29 08:15:19;;;;;;;19.83;11.23;;;3.60;99.90;;;;;;5094257;28;20035;-78
2022/01/29 08:17:45;;;;;;;15.73;12.30;;;3.60;99.90;;;;;;5076073;28;20047;-77
2022/01/29 08:20:12;;;;;;;11.73;10.63;;;3.60;99.90;;;;;;5094109;28;20389;-77
2022/01/29 08:22:38;;;;;;;18.75;10.13;;;3.60;99.90;;;;;;5073111;28;20040;-76
2022/01/29 08:25:05;;;;;;;15.43;11.05;;;3.60;99.90;;;;;;5074590;28;20386;-78
2022/01/29 08:27:31;;;;;;;14.73;12.20;;;3.70;99.90;;;;;;5072915;28;20040;-78
2022/01/29 08:29:58;;;;;;;33.97;24.92;;;3.70;99.90;;;;;;5091492;28;20024;-78
2022/01/29 08:32:24;;;;;;;22.20;19.08;;;3.80;99.90;;;;;;5093149;28;20036;-79
2022/01/29 08:34:50;;;;;;;16.65;14.30;;;3.80;99.90;;;;;;5093483;28;20043;-78
2022/01/29 08:37:16;;;;;;;20.05;16.40;;;3.80;99.90;;;;;;5093781;28;20385;-79
2022/01/29 08:39:43;;;;;;;11.98;10.82;;;3.80;99.90;;;;;;5094305;28;20469;-80
2022/01/29 08:42:09;;;;;;;16.27;11.38;;;3.80;99.90;;;;;;5094692;28;20036;-78
2022/01/29 08:44:36;;;;;;;12.98;11.48;;;3.90;99.90;;;;;;5093879;28;20047;-78
2022/01/29 08:47:03;;;;;;;15.15;13.63;;;4.00;99.90;;;;;;5094658;28;20040;-78
2022/01/29 08:49:29;;;;;;;18.80;12.70;;;4.10;99.90;;;;;;5095089;28;20036;-78
2022/01/29 08:51:55;;;;;;;12.55;10.35;;;4.20;99.90;;;;;;5094437;28;20085;-78
2022/01/29 08:54:21;;;;;;;13.10;9.98;;;4.30;99.90;;;;;;5078374;28;20039;-78
2022/01/29 08:56:48;;;;;;;12.43;10.48;;;4.40;99.90;;;;;;5078721;28;20047;-77
2022/01/29 08:59:14;;;;;;;19.02;11.30;;;4.40;99.90;;;;;;5094453;28;20024;-79
2022/01/29 09:01:40;;;;;;;14.38;9.75;;;4.40;99.90;;;;;;5093906;28;20472;-78
2022/01/29 09:04:07;;;;;;;13.65;9.70;;;4.30;99.90;;;;;;5093466;28;20051;-78
2022/01/29 09:06:34;;;;;;;10.45;8.43;;;4.30;99.90;;;;;;5074865;28;20040;-77
2022/01/29 09:09:00;;;;;;;11.15;9.65;;;4.20;99.90;;;;;;5093848;28;20393;-78
2022/01/29 09:11:27;;;;;;;15.60;11.95;;;4.20;99.90;;;;;;5092308;28;20453;-78
2022/01/29 09:13:53;;;;;;;14.40;9.38;;;4.20;99.90;;;;;;5092206;28;20032;-77
2022/01/29 09:16:19;;;;;;;23.15;9.40;;;4.20;99.90;;;;;;5093734;28;20128;-78
2022/01/29 09:18:45;;;;;;;13.10;10.10;;;4.30;99.90;;;;;;5093679;28;20477;-78
2022/01/29 09:21:13;;;;;;;14.85;8.05;;;4.40;99.90;;;;;;5075914;28;20044;-77
2022/01/29 09:23:39;;;;;;;10.68;9.27;;;4.40;99.90;;;;;;5093460;28;20028;-77
2022/01/29 09:26:05;;;;;;;10.98;8.15;;;4.50;99.90;;;;;;5093312;28;20040;-77
2022/01/29 09:28:31;;;;;;;12.90;9.05;;;4.50;99.90;;;;;;5074610;28;20039;-77
2022/01/29 09:30:57;;;;;;;8.88;7.88;;;4.50;99.90;;;;;;5093778;28;20028;-78
2022/01/29 09:33:24;;;;;;;9.75;7.97;;;4.60;99.90;;;;;;5092669;28;20118;-78
2022/01/29 09:35:50;;;;;;;15.13;9.07;;;4.60;99.90;;;;;;5093263;28;20028;-78
2022/01/29 09:38:17;;;;;;;9.85;8.02;;;4.60;99.90;;;;;;5092888;28;20028;-79
2022/01/29 09:40:44;;;;;;;16.85;7.97;;;4.70;99.90;;;;;;5095706;28;20035;-76
2022/01/29 09:43:11;;;;;;;10.82;9.30;;;4.70;99.90;;;;;;5079636;28;20054;-76
2022/01/29 09:45:37;;;;;;;14.85;9.80;;;4.70;99.90;;;;;;5091648;28;20487;-78
2022/01/29 09:48:04;;;;;;;8.45;7.47;;;4.80;99.90;;;;;;5092928;28;20035;-78
2022/01/29 09:50:34;;;;;;;10.48;9.38;;;4.70;99.90;;;;;;5092306;28;20043;-76
2022/01/29 09:53:02;;;;;;;7.78;7.05;;;4.80;99.90;;;;;;5093145;28;20039;-77
2022/01/29 09:55:29;;;;;;;9.00;8.05;;;4.80;99.90;;;;;;5092225;28;20028;-77
2022/01/29 09:57:56;;;;;;;9.90;7.80;;;4.80;99.90;;;;;;5093105;28;20396;-77
2022/01/29 10:00:23;;;;;;;9.05;7.32;;;4.80;99.90;;;;;;5092249;28;20039;-76
2022/01/29 10:03:11;;;;;;;7.15;5.95;;;4.80;99.90;;;;;;5092743;28;20024;-78
2022/01/29 10:05:45;;;;;;;9.13;6.30;;;4.90;99.90;;;;;;5091939;28;20036;-78
2022/01/29 10:08:12;;;;;;;8.07;5.93;;;4.90;99.90;;;;;;5092945;28;20032;-78
2022/01/29 10:10:47;;;;;;;6.75;6.05;;;4.90;99.90;;;;;;5074414;28;20030;-78
2022/01/29 10:13:24;;;;;;;9.63;6.63;;;5.00;99.90;;;;;;5092795;28;20032;-78
2022/01/29 10:15:52;;;;;;;9.45;6.20;;;5.10;99.90;;;;;;5092768;28;20033;-78
2022/01/29 10:18:22;;;;;;;9.10;6.07;;;5.20;99.90;;;;;;5091710;28;20055;-81
2022/01/29 10:20:50;;;;;;;7.07;6.28;;;5.10;99.90;;;;;;5092806;28;20036;-78
2022/01/29 10:23:17;;;;;;;8.15;7.40;;;4.90;99.90;;;;;;5092596;28;20036;-78
2022/01/29 10:25:50;;;;;;;10.43;9.15;;;4.70;99.90;;;;;;5092338;28;20062;-77
2022/01/29 10:28:19;;;;;;;11.32;9.52;;;4.60;99.90;;;;;;5092788;28;20024;-77
2022/01/29 10:30:48;;;;;;;14.43;10.80;;;4.60;99.90;;;;;;5074327;28;20059;-77
2022/01/29 10:33:34;;;;;;;11.88;8.82;;;4.60;99.90;;;;;;5094229;28;20035;-76
2022/01/29 10:36:04;;;;;;;14.07;10.40;;;4.50;99.90;;;;;;5092332;28;20024;-79
2022/01/29 10:38:53;;;;;;;10.32;9.10;;;4.50;99.90;;;;;;5091819;28;20028;-78
2022/01/29 10:41:22;;;;;;;14.23;11.68;;;4.50;99.90;;;;;;5091859;28;20043;-79
2022/01/29 10:43:57;;;;;;;12.13;11.00;;;4.50;99.90;;;;;;5091798;28;20036;-77
2022/01/29 10:46:29;;;;;;;15.23;11.70;;;4.40;99.90;;;;;;5093909;28;20036;-77
2022/01/29 10:48:56;;;;;;;13.60;12.13;;;4.40;99.90;;;;;;5097764;28;20044;-78
2022/01/29 10:51:24;;;;;;;11.60;10.43;;;4.50;99.90;;;;;;5101421;28;20477;-77
2022/01/29 10:53:53;;;;;;;15.85;11.18;;;4.40;99.90;;;;;;5106116;28;20357;-78
2022/01/29 10:56:22;;;;;;;16.70;12.30;;;4.40;99.90;;;;;;5104711;28;20052;-81
2022/01/29 10:58:50;;;;;;;12.38;10.90;;;4.40;99.90;;;;;;5104156;28;20032;-78
2022/01/29 11:01:19;;;;;;;13.77;12.30;;;4.30;99.90;;;;;;5105861;28;20032;-77
2022/01/29 11:03:46;;;;;;;13.23;11.90;;;4.40;99.90;;;;;;5084572;28;20472;-78
2022/01/29 11:06:16;;;;;;;12.30;11.10;;;4.40;99.90;;;;;;5106058;28;20028;-77
2022/01/29 11:08:43;;;;;;;14.77;11.98;;;4.40;99.90;;;;;;5104871;28;20024;-77
2022/01/29 11:11:11;;;;;;;14.82;11.40;;;4.50;99.90;;;;;;5107191;28;20035;-77
2022/01/29 11:13:39;;;;;;;69.60;50.78;;;4.50;99.90;;;;;;5115774;28;20027;-77
2022/01/29 11:16:06;;;;;;;24.13;21.67;;;4.50;99.90;;;;;;5116232;28;20044;-76
2022/01/29 11:18:33;;;;;;;12.80;11.55;;;4.70;99.90;;;;;;5107497;28;20381;-78
2022/01/29 11:21:01;;;;;;;16.98;13.68;;;4.80;99.90;;;;;;5105480;28;20032;-78
2022/01/29 11:23:29;;;;;;;14.15;10.48;;;4.90;99.90;;;;;;5105169;28;20040;-77
2022/01/29 11:25:56;;;;;;;16.33;12.65;;;4.90;99.90;;;;;;5104382;28;20369;-78
2022/01/29 11:28:26;;;;;;;18.05;14.70;;;4.80;99.90;;;;;;5109027;28;20035;-77
2022/01/29 11:31:12;;;;;;;12.10;10.45;;;4.90;99.90;;;;;;5109192;28;20046;-80
2022/01/29 11:34:11;;;;;;;14.32;12.90;;;4.80;99.90;;;;;;5102338;28;20039;-78
2022/01/29 11:36:49;;;;;;;13.38;12.02;;;4.80;99.90;;;;;;5069803;28;20047;-79
2022/01/29 11:39:23;;;;;;;14.20;12.70;;;4.80;99.90;;;;;;5077372;28;20464;-78
2022/01/29 11:42:11;;;;;;;14.07;12.73;;;4.70;99.90;;;;;;5095654;28;20028;-79
2022/01/29 11:44:38;;;;;;;19.40;15.57;;;4.70;99.90;;;;;;5094900;28;20047;-78
2022/01/29 11:47:22;;;;;;;13.70;11.13;;;4.80;99.90;;;;;;5096213;28;20058;-79
2022/01/29 11:49:49;;;;;;;19.58;14.07;;;4.80;99.90;;;;;;5096155;28;20032;-80
2022/01/29 11:52:23;;;;;;;17.77;12.63;;;4.90;99.90;;;;;;5077079;28;20059;-80
2022/01/29 11:55:05;;;;;;;13.30;11.70;;;5.00;99.90;;;;;;5076709;28;20039;-77
2022/01/29 11:57:31;;;;;;;10.73;9.15;;;5.20;99.90;;;;;;5094163;28;20051;-77
2022/01/29 12:00:34;;;;;;;17.42;11.55;;;5.30;99.90;;;;;;5095259;28;20039;-78
2022/01/29 12:03:01;;;;;;;9.75;8.38;;;5.30;99.90;;;;;;5094791;28;20028;-78
2022/01/29 12:05:31;;;;;;;13.70;9.10;;;5.30;99.90;;;;;;5076120;28;20039;-78
2022/01/29 12:08:16;;;;;;;10.20;9.18;;;5.30;99.90;;;;;;5094857;28;20393;-77
2022/01/29 12:10:52;;;;;;;12.40;10.02;;;5.30;99.90;;;;;;5094205;28;20043;-77
2022/01/29 12:13:19;;;;;;;12.57;9.77;;;5.30;99.90;;;;;;5076602;28;20035;-78
2022/01/29 12:15:45;;;;;;;10.48;8.93;;;5.20;99.90;;;;;;5095421;28;20044;-78
2022/01/29 12:18:29;;;;;;;10.77;7.28;;;5.10;99.90;;;;;;5094937;28;20102;-77
2022/01/29 12:20:56;;;;;;;10.90;9.80;;;5.10;99.90;;;;;;5095014;28;20043;-78
2022/01/29 12:23:22;;;;;;;9.65;7.60;;;5.20;99.90;;;;;;5094819;28;20032;-78
2022/01/29 12:25:58;;;;;;;9.52;7.68;;;5.20;99.90;;;;;;5094646;28;20036;-77
2022/01/29 12:28:25;;;;;;;8.35;6.97;;;5.20;99.90;;;;;;5094040;28;20500;-78
2022/01/29 12:30:52;;;;;;;7.55;6.25;;;5.20;99.90;;;;;;5094574;28;20039;-79
2022/01/29 12:33:20;;;;;;;8.98;6.43;;;5.20;99.90;;;;;;5094574;28;20040;-76
2022/01/29 12:36:02;;;;;;;7.13;6.22;;;5.20;99.90;;;;;;5093779;28;20036;-76
2022/01/29 12:38:29;;;;;;;;;;;5.20;99.90;;;;;;5094488;28;20040;-77
2022/01/29 12:41:03;;;;;;;6.50;5.90;;;5.20;99.90;;;;;;5094125;28;19919;-76
2022/01/29 12:43:32;;;;;;;11.15;9.10;;;5.20;99.90;;;;;;5094365;28;20040;-81
2022/01/29 12:46:19;;;;;;;35.72;25.55;;;5.10;99.90;;;;;;5094362;28;20044;-82
2022/01/29 12:49:10;;;;;;;33.40;30.23;;;5.10;99.90;;;;;;5074889;28;20044;-80
2022/01/29 12:51:53;;;;;;;12.95;7.90;;;5.00;99.90;;;;;;5093644;28;20480;-82
2022/01/29 12:54:20;;;;;;;11.30;8.82;;;5.00;99.90;;;;;;5075705;28;20040;-80
2022/01/29 12:56:48;;;;;;;12.57;7.88;;;4.90;99.90;;;;;;5058133;28;20040;-81
2022/01/29 12:59:15;;;;;;;10.73;9.60;;;4.90;99.90;;;;;;5092524;28;20035;-82
2022/01/29 13:01:44;;;;;;;8.73;7.88;;;5.00;99.90;;;;;;5092914;28;20047;-81
2022/01/29 13:04:17;;;;;;;8.55;7.70;;;5.00;99.90;;;;;;5093936;28;20121;-81